sensor_id;sensor_type;location;lat;lon;timestamp;P1;durP1;ratioP1;P2;durP2;ratioP2
61200;SDS011;47065;52.898;6.992;2023-04-15T00:00:14;7.72;;;4.00;;
61200;SDS011;47065;52.898;6.992;2023-04-15T00:02:41;8.23;;;4.30;;
61200;SDS011;47065;52.898;6.992;2023-04-15T00:05:08;9.57;;;4.78;;
61200;SDS011;47065;52.898;6.992;2023-04-15T00:07:34;7.18;;;3.85;;
61200;SDS011;47065;52.898;6.992;2023-04-15T00:10:00;11.80;;;5.93;;
61200;SDS011;47065;52.898;6.992;2023-04-15T00:12:26;6.82;;;4.55;;
61200;SDS011;47065;52.898;6.992;2023-04-15T00:14:52;9.07;;;5.80;;
61200;SDS011;47065;52.898;6.992;2023-04-15T00:17:18;7.38;;;4.40;;
61200;SDS011;47065;52.898;6.992;2023-04-15T00:19:44;9.98;;;5.80;;
61200;SDS011;47065;52.898;6.992;2023-04-15T00:22:10;9.88;;;5.30;;
61200;SDS011;47065;52.898;6.992;2023-04-15T00:24:36;9.38;;;4.90;;
61200;SDS011;47065;52.898;6.992;2023-04-15T00:27:02;7.82;;;4.55;;
61200;SDS011;47065;52.898;6.992;2023-04-15T00:29:28;5.80;;;4.80;;
61200;SDS011;47065;52.898;6.992;2023-04-15T00:31:54;9.13;;;5.50;;
61200;SDS011;47065;52.898;6.992;2023-04-15T00:34:21;9.85;;;4.70;;
61200;SDS011;47065;52.898;6.992;2023-04-15T00:36:47;8.90;;;4.80;;
61200;SDS011;47065;52.898;6.992;2023-04-15T00:39:13;10.15;;;4.72;;
61200;SDS011;47065;52.898;6.992;2023-04-15T00:41:40;11.02;;;5.88;;
61200;SDS011;47065;52.898;6.992;2023-04-15T00:44:06;9.80;;;5.70;;
61200;SDS011;47065;52.898;6.992;2023-04-15T00:46:36;9.73;;;5.15;;
61200;SDS011;47065;52.898;6.992;2023-04-15T00:49:05;8.77;;;5.43;;
61200;SDS011;47065;52.898;6.992;2023-04-15T00:51:32;10.55;;;6.32;;
61200;SDS011;47065;52.898;6.992;2023-04-15T00:54:00;13.57;;;5.60;;
61200;SDS011;47065;52.898;6.992;2023-04-15T00:56:30;14.57;;;5.63;;
61200;SDS011;47065;52.898;6.992;2023-04-15T00:58:59;8.07;;;5.05;;
61200;SDS011;47065;52.898;6.992;2023-04-15T01:01:26;12.63;;;5.55;;
61200;SDS011;47065;52.898;6.992;2023-04-15T01:03:53;9.95;;;5.50;;
61200;SDS011;47065;52.898;6.992;2023-04-15T01:06:20;10.07;;;6.60;;
61200;SDS011;47065;52.898;6.992;2023-04-15T01:08:46;10.30;;;5.70;;
61200;SDS011;47065;52.898;6.992;2023-04-15T01:11:12;8.02;;;5.97;;
61200;SDS011;47065;52.898;6.992;2023-04-15T01:13:38;10.00;;;5.65;;
61200;SDS011;47065;52.898;6.992;2023-04-15T01:16:04;10.82;;;5.55;;
61200;SDS011;47065;52.898;6.992;2023-04-15T01:18:31;10.85;;;6.07;;
61200;SDS011;47065;52.898;6.992;2023-04-15T01:20:57;12.80;;;7.68;;
61200;SDS011;47065;52.898;6.992;2023-04-15T01:23:26;12.55;;;5.72;;
61200;SDS011;47065;52.898;6.992;2023-04-15T01:25:52;14.80;;;6.80;;
61200;SDS011;47065;52.898;6.992;2023-04-15T01:28:19;13.25;;;7.72;;
61200;SDS011;47065;52.898;6.992;2023-04-15T01:30:45;13.32;;;6.85;;
61200;SDS011;47065;52.898;6.992;2023-04-15T01:33:11;11.10;;;6.70;;
61200;SDS011;47065;52.898;6.992;2023-04-15T01:35:37;17.48;;;8.00;;
61200;SDS011;47065;52.898;6.992;2023-04-15T01:38:07;14.95;;;7.30;;
61200;SDS011;47065;52.898;6.992;2023-04-15T01:40:33;12.27;;;7.70;;
61200;SDS011;47065;52.898;6.992;2023-04-15T01:43:02;12.60;;;7.88;;
61200;SDS011;47065;52.898;6.992;2023-04-15T01:45:28;11.27;;;7.72;;
61200;SDS011;47065;52.898;6.992;2023-04-15T01:47:54;14.48;;;7.20;;
61200;SDS011;47065;52.898;6.992;2023-04-15T01:50:19;7.22;;;5.90;;
61200;SDS011;47065;52.898;6.992;2023-04-15T01:52:45;9.30;;;5.93;;
61200;SDS011;47065;52.898;6.992;2023-04-15T01:55:12;7.60;;;5.35;;
61200;SDS011;47065;52.898;6.992;2023-04-15T01:57:38;8.68;;;4.95;;
61200;SDS011;47065;52.898;6.992;2023-04-15T02:00:05;7.60;;;4.82;;
61200;SDS011;47065;52.898;6.992;2023-04-15T02:02:34;8.48;;;6.28;;
61200;SDS011;47065;52.898;6.992;2023-04-15T02:04:59;10.18;;;6.18;;
61200;SDS011;47065;52.898;6.992;2023-04-15T02:07:25;10.25;;;6.85;;
61200;SDS011;47065;52.898;6.992;2023-04-15T02:09:52;12.05;;;6.85;;
61200;SDS011;47065;52.898;6.992;2023-04-15T02:12:18;14.60;;;7.07;;
61200;SDS011;47065;52.898;6.992;2023-04-15T02:14:44;9.38;;;7.50;;
61200;SDS011;47065;52.898;6.992;2023-04-15T02:17:09;13.55;;;8.45;;
61200;SDS011;47065;52.898;6.992;2023-04-15T02:19:35;11.80;;;7.35;;
61200;SDS011;47065;52.898;6.992;2023-04-15T02:22:01;11.73;;;8.23;;
61200;SDS011;47065;52.898;6.992;2023-04-15T02:24:29;11.65;;;7.20;;
61200;SDS011;47065;52.898;6.992;2023-04-15T02:26:55;16.48;;;8.10;;
61200;SDS011;47065;52.898;6.992;2023-04-15T02:29:21;17.05;;;9.48;;
61200;SDS011;47065;52.898;6.992;2023-04-15T02:31:47;15.88;;;8.82;;
61200;SDS011;47065;52.898;6.992;2023-04-15T02:34:13;15.68;;;8.68;;
61200;SDS011;47065;52.898;6.992;2023-04-15T02:36:39;14.32;;;10.07;;
61200;SDS011;47065;52.898;6.992;2023-04-15T02:39:05;15.77;;;9.43;;
61200;SDS011;47065;52.898;6.992;2023-04-15T02:41:31;15.95;;;10.20;;
61200;SDS011;47065;52.898;6.992;2023-04-15T02:43:57;15.40;;;8.50;;
61200;SDS011;47065;52.898;6.992;2023-04-15T02:46:22;13.02;;;8.05;;
61200;SDS011;47065;52.898;6.992;2023-04-15T02:48:48;16.13;;;10.05;;
61200;SDS011;47065;52.898;6.992;2023-04-15T02:51:19;12.73;;;9.52;;
61200;SDS011;47065;52.898;6.992;2023-04-15T02:53:46;14.75;;;8.95;;
61200;SDS011;47065;52.898;6.992;2023-04-15T02:56:13;15.88;;;9.85;;
61200;SDS011;47065;52.898;6.992;2023-04-15T02:58:40;13.20;;;8.77;;
61200;SDS011;47065;52.898;6.992;2023-04-15T03:01:06;16.50;;;9.40;;
61200;SDS011;47065;52.898;6.992;2023-04-15T03:03:32;15.65;;;10.05;;
61200;SDS011;47065;52.898;6.992;2023-04-15T03:05:58;16.13;;;9.20;;
61200;SDS011;47065;52.898;6.992;2023-04-15T03:08:24;15.90;;;10.05;;
61200;SDS011;47065;52.898;6.992;2023-04-15T03:10:50;17.85;;;10.80;;
61200;SDS011;47065;52.898;6.992;2023-04-15T03:13:16;18.33;;;11.98;;
61200;SDS011;47065;52.898;6.992;2023-04-15T03:15:42;18.23;;;10.73;;
61200;SDS011;47065;52.898;6.992;2023-04-15T03:18:10;14.07;;;9.35;;
61200;SDS011;47065;52.898;6.992;2023-04-15T03:20:36;16.83;;;9.93;;
61200;SDS011;47065;52.898;6.992;2023-04-15T03:23:04;16.65;;;9.27;;
61200;SDS011;47065;52.898;6.992;2023-04-15T03:25:30;13.55;;;9.00;;
61200;SDS011;47065;52.898;6.992;2023-04-15T03:27:55;20.45;;;10.00;;
61200;SDS011;47065;52.898;6.992;2023-04-15T03:30:21;16.48;;;9.98;;
61200;SDS011;47065;52.898;6.992;2023-04-15T03:32:46;15.20;;;9.88;;
61200;SDS011;47065;52.898;6.992;2023-04-15T03:35:12;14.90;;;9.98;;
61200;SDS011;47065;52.898;6.992;2023-04-15T03:37:38;16.88;;;10.02;;
61200;SDS011;47065;52.898;6.992;2023-04-15T03:40:03;17.92;;;11.35;;
61200;SDS011;47065;52.898;6.992;2023-04-15T03:42:29;16.77;;;10.43;;
61200;SDS011;47065;52.898;6.992;2023-04-15T03:44:55;16.67;;;11.15;;
61200;SDS011;47065;52.898;6.992;2023-04-15T03:47:21;15.52;;;9.77;;
61200;SDS011;47065;52.898;6.992;2023-04-15T03:49:46;19.30;;;10.55;;
61200;SDS011;47065;52.898;6.992;2023-04-15T03:52:12;16.13;;;9.75;;
61200;SDS011;47065;52.898;6.992;2023-04-15T03:54:38;15.85;;;10.30;;
61200;SDS011;47065;52.898;6.992;2023-04-15T03:57:03;14.48;;;10.20;;
61200;SDS011;47065;52.898;6.992;2023-04-15T03:59:29;16.70;;;10.48;;
61200;SDS011;47065;52.898;6.992;2023-04-15T04:01:55;14.38;;;10.70;;
61200;SDS011;47065;52.898;6.992;2023-04-15T04:04:20;20.20;;;10.55;;
61200;SDS011;47065;52.898;6.992;2023-04-15T04:06:46;18.63;;;11.43;;
61200;SDS011;47065;52.898;6.992;2023-04-15T04:09:11;19.92;;;11.88;;
61200;SDS011;47065;52.898;6.992;2023-04-15T04:11:37;17.35;;;11.18;;
61200;SDS011;47065;52.898;6.992;2023-04-15T04:14:03;17.55;;;11.43;;
61200;SDS011;47065;52.898;6.992;2023-04-15T04:16:28;16.02;;;9.20;;
61200;SDS011;47065;52.898;6.992;2023-04-15T04:18:54;15.35;;;9.88;;
61200;SDS011;47065;52.898;6.992;2023-04-15T04:21:20;19.05;;;9.80;;
61200;SDS011;47065;52.898;6.992;2023-04-15T04:23:46;17.67;;;10.60;;
61200;SDS011;47065;52.898;6.992;2023-04-15T04:26:11;17.38;;;10.65;;
61200;SDS011;47065;52.898;6.992;2023-04-15T04:28:37;20.00;;;11.57;;
61200;SDS011;47065;52.898;6.992;2023-04-15T04:31:05;17.13;;;10.90;;
61200;SDS011;47065;52.898;6.992;2023-04-15T04:33:31;22.13;;;11.50;;
61200;SDS011;47065;52.898;6.992;2023-04-15T04:35:57;13.50;;;9.18;;
61200;SDS011;47065;52.898;6.992;2023-04-15T04:38:23;17.13;;;10.63;;
61200;SDS011;47065;52.898;6.992;2023-04-15T04:40:48;15.70;;;10.35;;
61200;SDS011;47065;52.898;6.992;2023-04-15T04:43:14;19.42;;;11.00;;
61200;SDS011;47065;52.898;6.992;2023-04-15T04:45:40;23.00;;;12.75;;
61200;SDS011;47065;52.898;6.992;2023-04-15T04:48:06;18.95;;;12.07;;
61200;SDS011;47065;52.898;6.992;2023-04-15T04:50:33;24.30;;;14.13;;
61200;SDS011;47065;52.898;6.992;2023-04-15T04:52:59;19.27;;;12.80;;
61200;SDS011;47065;52.898;6.992;2023-04-15T04:55:25;22.27;;;12.95;;
61200;SDS011;47065;52.898;6.992;2023-04-15T04:57:51;18.92;;;11.50;;
61200;SDS011;47065;52.898;6.992;2023-04-15T05:00:17;19.23;;;12.57;;
61200;SDS011;47065;52.898;6.992;2023-04-15T05:02:43;21.85;;;13.38;;
61200;SDS011;47065;52.898;6.992;2023-04-15T05:05:09;20.92;;;12.52;;
61200;SDS011;47065;52.898;6.992;2023-04-15T05:07:36;21.30;;;13.15;;
61200;SDS011;47065;52.898;6.992;2023-04-15T05:10:02;18.58;;;12.70;;
61200;SDS011;47065;52.898;6.992;2023-04-15T05:12:28;23.75;;;13.80;;
61200;SDS011;47065;52.898;6.992;2023-04-15T05:14:53;27.02;;;14.98;;
61200;SDS011;47065;52.898;6.992;2023-04-15T05:17:19;27.25;;;15.52;;
61200;SDS011;47065;52.898;6.992;2023-04-15T05:19:45;34.08;;;17.45;;
61200;SDS011;47065;52.898;6.992;2023-04-15T05:22:10;26.45;;;16.42;;
61200;SDS011;47065;52.898;6.992;2023-04-15T05:24:36;29.73;;;16.88;;
61200;SDS011;47065;52.898;6.992;2023-04-15T05:27:01;31.10;;;16.75;;
61200;SDS011;47065;52.898;6.992;2023-04-15T05:29:27;35.63;;;18.75;;
61200;SDS011;47065;52.898;6.992;2023-04-15T05:31:53;31.60;;;18.52;;
61200;SDS011;47065;52.898;6.992;2023-04-15T05:34:18;32.13;;;17.73;;
61200;SDS011;47065;52.898;6.992;2023-04-15T05:36:44;30.88;;;16.90;;
61200;SDS011;47065;52.898;6.992;2023-04-15T05:39:10;32.58;;;18.50;;
61200;SDS011;47065;52.898;6.992;2023-04-15T05:41:35;32.83;;;18.55;;
61200;SDS011;47065;52.898;6.992;2023-04-15T05:44:02;34.25;;;18.83;;
61200;SDS011;47065;52.898;6.992;2023-04-15T05:46:27;36.15;;;18.92;;
61200;SDS011;47065;52.898;6.992;2023-04-15T05:48:53;30.85;;;17.67;;
61200;SDS011;47065;52.898;6.992;2023-04-15T05:51:18;35.25;;;18.00;;
61200;SDS011;47065;52.898;6.992;2023-04-15T05:53:44;33.33;;;17.45;;
61200;SDS011;47065;52.898;6.992;2023-04-15T05:56:10;32.97;;;19.45;;
61200;SDS011;47065;52.898;6.992;2023-04-15T05:58:36;38.72;;;21.63;;
61200;SDS011;47065;52.898;6.992;2023-04-15T06:01:02;42.03;;;24.13;;
61200;SDS011;47065;52.898;6.992;2023-04-15T06:03:28;50.95;;;24.25;;
61200;SDS011;47065;52.898;6.992;2023-04-15T06:05:54;45.17;;;24.63;;
61200;SDS011;47065;52.898;6.992;2023-04-15T06:08:20;40.35;;;22.55;;
61200;SDS011;47065;52.898;6.992;2023-04-15T06:10:46;47.35;;;24.48;;
61200;SDS011;47065;52.898;6.992;2023-04-15T06:13:12;52.92;;;25.67;;
61200;SDS011;47065;52.898;6.992;2023-04-15T06:15:37;57.22;;;25.95;;
61200;SDS011;47065;52.898;6.992;2023-04-15T06:18:03;53.92;;;27.27;;
61200;SDS011;47065;52.898;6.992;2023-04-15T06:20:29;58.17;;;28.05;;
61200;SDS011;47065;52.898;6.992;2023-04-15T06:22:55;47.80;;;24.70;;
61200;SDS011;47065;52.898;6.992;2023-04-15T06:25:21;42.35;;;22.50;;
61200;SDS011;47065;52.898;6.992;2023-04-15T06:27:47;39.80;;;21.80;;
61200;SDS011;47065;52.898;6.992;2023-04-15T06:30:13;46.65;;;22.90;;
61200;SDS011;47065;52.898;6.992;2023-04-15T06:32:38;43.42;;;23.95;;
61200;SDS011;47065;52.898;6.992;2023-04-15T06:35:04;46.65;;;25.10;;
61200;SDS011;47065;52.898;6.992;2023-04-15T06:37:30;42.42;;;20.42;;
61200;SDS011;47065;52.898;6.992;2023-04-15T06:39:56;44.90;;;21.33;;
61200;SDS011;47065;52.898;6.992;2023-04-15T06:42:22;41.03;;;21.63;;
61200;SDS011;47065;52.898;6.992;2023-04-15T06:44:48;35.92;;;18.38;;
61200;SDS011;47065;52.898;6.992;2023-04-15T06:47:14;34.50;;;16.92;;
61200;SDS011;47065;52.898;6.992;2023-04-15T06:49:40;27.65;;;15.98;;
61200;SDS011;47065;52.898;6.992;2023-04-15T06:52:07;29.05;;;16.30;;
61200;SDS011;47065;52.898;6.992;2023-04-15T06:54:33;21.92;;;14.57;;
61200;SDS011;47065;52.898;6.992;2023-04-15T06:56:58;28.50;;;14.95;;
61200;SDS011;47065;52.898;6.992;2023-04-15T06:59:24;21.60;;;13.40;;
61200;SDS011;47065;52.898;6.992;2023-04-15T07:01:49;21.13;;;12.98;;
61200;SDS011;47065;52.898;6.992;2023-04-15T07:04:15;23.95;;;10.18;;
61200;SDS011;47065;52.898;6.992;2023-04-15T07:06:41;15.15;;;10.23;;
61200;SDS011;47065;52.898;6.992;2023-04-15T07:09:07;19.38;;;10.48;;
61200;SDS011;47065;52.898;6.992;2023-04-15T07:11:33;14.88;;;10.02;;
61200;SDS011;47065;52.898;6.992;2023-04-15T07:13:58;17.77;;;10.32;;
61200;SDS011;47065;52.898;6.992;2023-04-15T07:16:24;19.85;;;10.05;;
61200;SDS011;47065;52.898;6.992;2023-04-15T07:18:50;15.20;;;8.85;;
61200;SDS011;47065;52.898;6.992;2023-04-15T07:21:15;13.23;;;9.27;;
61200;SDS011;47065;52.898;6.992;2023-04-15T07:23:41;15.07;;;8.82;;
61200;SDS011;47065;52.898;6.992;2023-04-15T07:26:07;10.90;;;7.47;;
61200;SDS011;47065;52.898;6.992;2023-04-15T07:28:33;12.65;;;7.80;;
61200;SDS011;47065;52.898;6.992;2023-04-15T07:30:59;14.23;;;7.82;;
61200;SDS011;47065;52.898;6.992;2023-04-15T07:33:24;9.07;;;6.65;;
61200;SDS011;47065;52.898;6.992;2023-04-15T07:35:50;9.73;;;6.78;;
61200;SDS011;47065;52.898;6.992;2023-04-15T07:38:16;12.02;;;6.88;;
61200;SDS011;47065;52.898;6.992;2023-04-15T07:40:41;10.77;;;7.07;;
61200;SDS011;47065;52.898;6.992;2023-04-15T07:43:07;10.40;;;6.93;;
61200;SDS011;47065;52.898;6.992;2023-04-15T07:45:34;9.65;;;6.50;;
61200;SDS011;47065;52.898;6.992;2023-04-15T07:48:00;9.63;;;6.55;;
61200;SDS011;47065;52.898;6.992;2023-04-15T07:50:26;14.13;;;7.10;;
61200;SDS011;47065;52.898;6.992;2023-04-15T07:52:52;10.88;;;6.90;;
61200;SDS011;47065;52.898;6.992;2023-04-15T07:55:18;12.20;;;6.80;;
61200;SDS011;47065;52.898;6.992;2023-04-15T07:57:47;10.50;;;6.97;;
61200;SDS011;47065;52.898;6.992;2023-04-15T08:00:13;9.93;;;6.82;;
61200;SDS011;47065;52.898;6.992;2023-04-15T08:02:40;11.02;;;6.47;;
61200;SDS011;47065;52.898;6.992;2023-04-15T08:05:07;8.70;;;5.80;;
61200;SDS011;47065;52.898;6.992;2023-04-15T08:07:36;10.50;;;6.70;;
61200;SDS011;47065;52.898;6.992;2023-04-15T08:10:02;8.80;;;6.05;;
61200;SDS011;47065;52.898;6.992;2023-04-15T08:12:28;11.55;;;7.03;;
61200;SDS011;47065;52.898;6.992;2023-04-15T08:14:54;8.00;;;5.90;;
61200;SDS011;47065;52.898;6.992;2023-04-15T08:17:20;6.72;;;4.53;;
61200;SDS011;47065;52.898;6.992;2023-04-15T08:19:46;6.72;;;5.10;;
61200;SDS011;47065;52.898;6.992;2023-04-15T08:22:12;7.20;;;5.32;;
61200;SDS011;47065;52.898;6.992;2023-04-15T08:24:38;6.05;;;5.15;;
61200;SDS011;47065;52.898;6.992;2023-04-15T08:27:04;7.28;;;4.43;;
61200;SDS011;47065;52.898;6.992;2023-04-15T08:29:30;9.98;;;4.20;;
61200;SDS011;47065;52.898;6.992;2023-04-15T08:31:57;6.50;;;4.07;;
61200;SDS011;47065;52.898;6.992;2023-04-15T08:34:24;5.47;;;4.30;;
61200;SDS011;47065;52.898;6.992;2023-04-15T08:36:50;6.47;;;4.47;;
61200;SDS011;47065;52.898;6.992;2023-04-15T08:39:16;6.97;;;5.10;;
61200;SDS011;47065;52.898;6.992;2023-04-15T08:41:45;7.75;;;5.60;;
61200;SDS011;47065;52.898;6.992;2023-04-15T08:44:15;7.28;;;4.07;;
61200;SDS011;47065;52.898;6.992;2023-04-15T08:46:42;7.97;;;4.93;;
61200;SDS011;47065;52.898;6.992;2023-04-15T08:49:11;7.18;;;5.05;;
61200;SDS011;47065;52.898;6.992;2023-04-15T08:51:40;8.93;;;4.80;;
61200;SDS011;47065;52.898;6.992;2023-04-15T08:54:09;5.88;;;4.13;;
61200;SDS011;47065;52.898;6.992;2023-04-15T08:56:36;7.00;;;4.45;;
61200;SDS011;47065;52.898;6.992;2023-04-15T08:59:03;4.30;;;3.38;;
61200;SDS011;47065;52.898;6.992;2023-04-15T09:01:30;5.80;;;3.67;;
61200;SDS011;47065;52.898;6.992;2023-04-15T09:03:56;6.07;;;2.80;;
61200;SDS011;47065;52.898;6.992;2023-04-15T09:06:23;5.22;;;3.40;;
61200;SDS011;47065;52.898;6.992;2023-04-15T09:08:50;6.90;;;4.47;;
61200;SDS011;47065;52.898;6.992;2023-04-15T09:11:16;4.10;;;3.30;;
61200;SDS011;47065;52.898;6.992;2023-04-15T09:13:43;6.05;;;4.50;;
61200;SDS011;47065;52.898;6.992;2023-04-15T09:16:09;5.00;;;3.20;;
61200;SDS011;47065;52.898;6.992;2023-04-15T09:18:35;9.85;;;3.40;;
61200;SDS011;47065;52.898;6.992;2023-04-15T09:21:12;6.45;;;3.50;;
61200;SDS011;47065;52.898;6.992;2023-04-15T09:23:40;6.32;;;3.53;;
61200;SDS011;47065;52.898;6.992;2023-04-15T09:26:29;3.22;;;2.92;;
61200;SDS011;47065;52.898;6.992;2023-04-15T09:29:01;7.68;;;3.13;;
61200;SDS011;47065;52.898;6.992;2023-04-15T09:31:29;5.63;;;3.35;;
61200;SDS011;47065;52.898;6.992;2023-04-15T09:33:55;5.03;;;3.10;;
61200;SDS011;47065;52.898;6.992;2023-04-15T09:36:21;5.97;;;3.17;;
61200;SDS011;47065;52.898;6.992;2023-04-15T09:38:56;3.35;;;2.72;;
61200;SDS011;47065;52.898;6.992;2023-04-15T09:41:23;10.40;;;3.33;;
61200;SDS011;47065;52.898;6.992;2023-04-15T09:43:50;6.25;;;3.08;;
61200;SDS011;47065;52.898;6.992;2023-04-15T09:46:15;7.60;;;3.65;;
61200;SDS011;47065;52.898;6.992;2023-04-15T09:48:41;4.80;;;3.10;;
61200;SDS011;47065;52.898;6.992;2023-04-15T09:51:07;8.07;;;3.30;;
61200;SDS011;47065;52.898;6.992;2023-04-15T09:53:34;7.75;;;3.40;;
61200;SDS011;47065;52.898;6.992;2023-04-15T09:56:01;5.57;;;3.28;;
61200;SDS011;47065;52.898;6.992;2023-04-15T09:58:28;4.38;;;2.38;;
61200;SDS011;47065;52.898;6.992;2023-04-15T10:00:55;6.30;;;3.17;;
61200;SDS011;47065;52.898;6.992;2023-04-15T10:05:50;6.22;;;3.03;;
61200;SDS011;47065;52.898;6.992;2023-04-15T10:08:23;7.68;;;2.65;;
61200;SDS011;47065;52.898;6.992;2023-04-15T10:13:22;5.00;;;2.20;;
61200;SDS011;47065;52.898;6.992;2023-04-15T10:16:06;5.15;;;2.25;;
61200;SDS011;47065;52.898;6.992;2023-04-15T10:18:37;3.53;;;2.60;;
61200;SDS011;47065;52.898;6.992;2023-04-15T10:21:05;6.22;;;3.28;;
61200;SDS011;47065;52.898;6.992;2023-04-15T10:23:32;5.90;;;2.30;;
61200;SDS011;47065;52.898;6.992;2023-04-15T10:25:58;4.07;;;2.47;;
61200;SDS011;47065;52.898;6.992;2023-04-15T10:28:24;6.40;;;2.72;;
61200;SDS011;47065;52.898;6.992;2023-04-15T10:30:51;6.90;;;2.67;;
61200;SDS011;47065;52.898;6.992;2023-04-15T10:33:18;6.38;;;2.55;;
61200;SDS011;47065;52.898;6.992;2023-04-15T10:35:47;5.03;;;2.97;;
61200;SDS011;47065;52.898;6.992;2023-04-15T10:41:11;4.70;;;2.50;;
61200;SDS011;47065;52.898;6.992;2023-04-15T10:49:09;6.97;;;2.92;;
61200;SDS011;47065;52.898;6.992;2023-04-15T10:51:39;5.80;;;2.63;;
61200;SDS011;47065;52.898;6.992;2023-04-15T10:54:15;3.03;;;2.65;;
61200;SDS011;47065;52.898;6.992;2023-04-15T10:59:30;5.30;;;3.00;;
61200;SDS011;47065;52.898;6.992;2023-04-15T11:01:59;3.40;;;2.20;;
61200;SDS011;47065;52.898;6.992;2023-04-15T11:07:34;9.32;;;3.28;;
61200;SDS011;47065;52.898;6.992;2023-04-15T11:13:05;10.18;;;3.20;;
61200;SDS011;47065;52.898;6.992;2023-04-15T11:15:41;5.30;;;2.65;;
61200;SDS011;47065;52.898;6.992;2023-04-15T11:18:15;4.50;;;2.33;;
61200;SDS011;47065;52.898;6.992;2023-04-15T11:20:45;9.18;;;2.63;;
61200;SDS011;47065;52.898;6.992;2023-04-15T11:23:13;9.20;;;2.67;;
61200;SDS011;47065;52.898;6.992;2023-04-15T11:25:39;4.20;;;3.10;;
61200;SDS011;47065;52.898;6.992;2023-04-15T11:28:05;6.18;;;3.20;;
61200;SDS011;47065;52.898;6.992;2023-04-15T11:30:34;6.40;;;3.17;;
61200;SDS011;47065;52.898;6.992;2023-04-15T11:33:02;7.32;;;3.40;;
61200;SDS011;47065;52.898;6.992;2023-04-15T11:35:32;8.70;;;2.83;;
61200;SDS011;47065;52.898;6.992;2023-04-15T11:38:02;6.32;;;2.90;;
61200;SDS011;47065;52.898;6.992;2023-04-15T11:40:29;7.85;;;4.72;;
61200;SDS011;47065;52.898;6.992;2023-04-15T11:43:10;5.18;;;2.92;;
61200;SDS011;47065;52.898;6.992;2023-04-15T11:45:48;12.55;;;3.38;;
61200;SDS011;47065;52.898;6.992;2023-04-15T11:48:25;7.28;;;3.13;;
61200;SDS011;47065;52.898;6.992;2023-04-15T11:50:59;10.05;;;3.30;;
61200;SDS011;47065;52.898;6.992;2023-04-15T11:53:45;9.60;;;3.35;;
61200;SDS011;47065;52.898;6.992;2023-04-15T11:56:16;5.88;;;3.55;;
61200;SDS011;47065;52.898;6.992;2023-04-15T11:58:47;11.85;;;4.75;;
61200;SDS011;47065;52.898;6.992;2023-04-15T12:01:14;4.03;;;2.70;;
61200;SDS011;47065;52.898;6.992;2023-04-15T12:03:44;6.65;;;2.75;;
61200;SDS011;47065;52.898;6.992;2023-04-15T12:06:17;4.72;;;2.67;;
61200;SDS011;47065;52.898;6.992;2023-04-15T12:11:17;10.15;;;2.90;;
61200;SDS011;47065;52.898;6.992;2023-04-15T12:13:46;3.28;;;2.53;;
61200;SDS011;47065;52.898;6.992;2023-04-15T12:16:17;5.00;;;2.53;;
61200;SDS011;47065;52.898;6.992;2023-04-15T12:18:46;7.63;;;2.60;;
61200;SDS011;47065;52.898;6.992;2023-04-15T12:21:23;8.20;;;2.25;;
61200;SDS011;47065;52.898;6.992;2023-04-15T12:23:54;6.80;;;3.33;;
61200;SDS011;47065;52.898;6.992;2023-04-15T12:26:24;9.05;;;2.90;;
61200;SDS011;47065;52.898;6.992;2023-04-15T12:29:00;8.30;;;3.30;;
61200;SDS011;47065;52.898;6.992;2023-04-15T12:31:27;10.95;;;4.18;;
61200;SDS011;47065;52.898;6.992;2023-04-15T12:33:54;9.73;;;3.38;;
61200;SDS011;47065;52.898;6.992;2023-04-15T12:36:20;6.40;;;3.13;;
61200;SDS011;47065;52.898;6.992;2023-04-15T12:38:46;8.88;;;3.30;;
61200;SDS011;47065;52.898;6.992;2023-04-15T12:41:12;6.75;;;2.75;;
61200;SDS011;47065;52.898;6.992;2023-04-15T12:43:37;7.50;;;2.38;;
61200;SDS011;47065;52.898;6.992;2023-04-15T12:46:03;6.75;;;2.70;;
61200;SDS011;47065;52.898;6.992;2023-04-15T12:48:29;5.63;;;4.18;;
61200;SDS011;47065;52.898;6.992;2023-04-15T12:50:55;12.55;;;3.15;;
61200;SDS011;47065;52.898;6.992;2023-04-15T12:53:20;5.68;;;2.92;;
61200;SDS011;47065;52.898;6.992;2023-04-15T12:55:46;4.07;;;2.17;;
61200;SDS011;47065;52.898;6.992;2023-04-15T12:58:12;6.60;;;2.60;;
61200;SDS011;47065;52.898;6.992;2023-04-15T13:00:38;5.95;;;2.40;;
61200;SDS011;47065;52.898;6.992;2023-04-15T13:03:03;7.63;;;3.40;;
61200;SDS011;47065;52.898;6.992;2023-04-15T13:05:29;9.30;;;2.50;;
61200;SDS011;47065;52.898;6.992;2023-04-15T13:07:55;5.57;;;2.70;;
61200;SDS011;47065;52.898;6.992;2023-04-15T13:10:21;6.78;;;1.80;;
61200;SDS011;47065;52.898;6.992;2023-04-15T13:12:50;7.72;;;2.00;;
61200;SDS011;47065;52.898;6.992;2023-04-15T13:15:18;10.05;;;2.25;;
61200;SDS011;47065;52.898;6.992;2023-04-15T13:17:45;3.00;;;1.65;;
61200;SDS011;47065;52.898;6.992;2023-04-15T13:20:10;6.00;;;2.20;;
61200;SDS011;47065;52.898;6.992;2023-04-15T13:22:36;10.73;;;2.83;;
61200;SDS011;47065;52.898;6.992;2023-04-15T13:25:02;9.18;;;2.60;;
61200;SDS011;47065;52.898;6.992;2023-04-15T13:27:28;9.50;;;2.47;;
61200;SDS011;47065;52.898;6.992;2023-04-15T13:29:53;5.30;;;2.50;;
61200;SDS011;47065;52.898;6.992;2023-04-15T13:32:19;6.68;;;2.60;;
61200;SDS011;47065;52.898;6.992;2023-04-15T13:34:44;11.85;;;3.80;;
61200;SDS011;47065;52.898;6.992;2023-04-15T13:37:10;6.53;;;3.35;;
61200;SDS011;47065;52.898;6.992;2023-04-15T13:39:36;13.50;;;3.78;;
61200;SDS011;47065;52.898;6.992;2023-04-15T13:42:01;7.75;;;3.25;;
61200;SDS011;47065;52.898;6.992;2023-04-15T13:44:28;9.45;;;3.08;;
61200;SDS011;47065;52.898;6.992;2023-04-15T13:46:54;13.15;;;2.58;;
61200;SDS011;47065;52.898;6.992;2023-04-15T13:49:20;6.82;;;3.25;;
61200;SDS011;47065;52.898;6.992;2023-04-15T13:51:46;8.30;;;2.75;;
61200;SDS011;47065;52.898;6.992;2023-04-15T13:54:11;12.48;;;3.65;;
61200;SDS011;47065;52.898;6.992;2023-04-15T13:56:37;8.18;;;3.13;;
61200;SDS011;47065;52.898;6.992;2023-04-15T13:59:03;8.82;;;3.58;;
61200;SDS011;47065;52.898;6.992;2023-04-15T14:01:28;14.20;;;4.53;;
61200;SDS011;47065;52.898;6.992;2023-04-15T14:03:54;7.85;;;2.67;;
61200;SDS011;47065;52.898;6.992;2023-04-15T14:06:20;11.77;;;2.97;;
61200;SDS011;47065;52.898;6.992;2023-04-15T14:08:46;11.40;;;3.22;;
61200;SDS011;47065;52.898;6.992;2023-04-15T14:11:11;9.13;;;2.50;;
61200;SDS011;47065;52.898;6.992;2023-04-15T14:13:37;3.95;;;2.60;;
61200;SDS011;47065;52.898;6.992;2023-04-15T14:16:03;7.53;;;3.20;;
61200;SDS011;47065;52.898;6.992;2023-04-15T14:18:29;12.20;;;3.33;;
61200;SDS011;47065;52.898;6.992;2023-04-15T14:20:54;8.77;;;3.58;;
61200;SDS011;47065;52.898;6.992;2023-04-15T14:23:21;5.55;;;3.17;;
61200;SDS011;47065;52.898;6.992;2023-04-15T14:25:47;15.13;;;4.18;;
61200;SDS011;47065;52.898;6.992;2023-04-15T14:28:13;13.73;;;3.72;;
61200;SDS011;47065;52.898;6.992;2023-04-15T14:30:39;8.50;;;3.33;;
61200;SDS011;47065;52.898;6.992;2023-04-15T14:33:04;9.15;;;3.72;;
61200;SDS011;47065;52.898;6.992;2023-04-15T14:35:30;11.25;;;3.95;;
61200;SDS011;47065;52.898;6.992;2023-04-15T14:37:56;9.73;;;4.40;;
61200;SDS011;47065;52.898;6.992;2023-04-15T14:40:22;12.05;;;3.95;;
61200;SDS011;47065;52.898;6.992;2023-04-15T14:42:47;11.25;;;4.18;;
61200;SDS011;47065;52.898;6.992;2023-04-15T14:45:13;12.85;;;4.80;;
61200;SDS011;47065;52.898;6.992;2023-04-15T14:47:39;11.88;;;4.68;;
61200;SDS011;47065;52.898;6.992;2023-04-15T14:50:04;8.25;;;4.00;;
61200;SDS011;47065;52.898;6.992;2023-04-15T14:52:30;9.43;;;4.90;;
61200;SDS011;47065;52.898;6.992;2023-04-15T14:55:04;9.98;;;4.97;;
61200;SDS011;47065;52.898;6.992;2023-04-15T14:57:36;17.70;;;4.68;;
61200;SDS011;47065;52.898;6.992;2023-04-15T15:00:03;9.50;;;4.32;;